Time;durP1;ratioP1;P1;durP2;ratioP2;P2;SDS_P1;SDS_P2;PMS_P1;PMS_P2;Temp;Humidity;BMP_temperature;BMP_pressure;BME280_temperature;BME280_humidity;BME280_pressure;Samples;Min_cycle;Max_cycle;Signal;HPM_P1;HPM_P2
2021/04/23 00:00:33;;;;;;;11.98;3.22;;;8.00;76.20;;;;;;5078465;28;20304;-83
2021/04/23 00:03:03;;;;;;;8.57;2.50;;;7.80;76.40;;;;;;5077533;28;20212;-83
2021/04/23 00:05:30;;;;;;;7.25;2.60;;;7.90;76.90;;;;;;5076935;28;20269;-83
2021/04/23 00:07:56;;;;;;;7.70;2.58;;;7.80;77.40;;;;;;5078185;28;20218;-82
2021/04/23 00:10:24;;;;;;;8.60;3.95;;;7.70;77.70;;;;;;5079112;28;20202;-82
2021/04/23 00:12:51;;;;;;;10.77;3.92;;;7.50;78.30;;;;;;5077514;28;20213;-82
2021/04/23 00:15:21;;;;;;;7.10;2.85;;;7.50;78.60;;;;;;5058350;28;20234;-81
2021/04/23 00:17:49;;;;;;;8.30;3.50;;;7.70;78.40;;;;;;5076074;28;20329;-81
2021/04/23 00:20:17;;;;;;;9.70;3.10;;;7.60;78.60;;;;;;5076852;28;20891;-81
2021/04/23 00:22:44;;;;;;;7.40;2.70;;;7.60;78.80;;;;;;5077421;28;20515;-81
2021/04/23 00:25:12;;;;;;;7.87;2.60;;;7.40;79.00;;;;;;5072962;28;20492;-81
2021/04/23 00:27:41;;;;;;;7.95;2.95;;;7.70;79.50;;;;;;5060162;28;20452;-81
2021/04/23 00:30:10;;;;;;;6.93;2.80;;;7.60;79.50;;;;;;5064697;28;20561;-81
2021/04/23 00:32:36;;;;;;;5.33;2.27;;;7.50;79.90;;;;;;5063826;28;20479;-81
2021/04/23 00:35:04;;;;;;;7.95;2.75;;;7.60;80.10;;;;;;5065707;28;20449;-81
2021/04/23 00:37:30;;;;;;;11.23;2.90;;;7.50;80.40;;;;;;5064943;28;20213;-80
2021/04/23 00:39:57;;;;;;;6.05;2.75;;;7.70;80.70;;;;;;5058668;28;20255;-81
2021/04/23 00:42:23;;;;;;;9.00;2.63;;;7.40;80.70;;;;;;5057823;28;20288;-81
2021/04/23 00:44:50;;;;;;;10.67;2.87;;;7.50;81.00;;;;;;5061461;28;20217;-81
2021/04/23 00:47:16;;;;;;;8.00;2.90;;;7.40;81.10;;;;;;5074676;28;20507;-81
2021/04/23 00:49:42;;;;;;;6.65;2.97;;;7.40;81.70;;;;;;5099154;28;20247;-81
2021/04/23 00:52:10;;;;;;;7.07;2.53;;;7.50;81.50;;;;;;5100166;28;20205;-81
2021/04/23 00:54:36;;;;;;;7.32;3.05;;;7.40;81.50;;;;;;5099363;28;20315;-81
2021/04/23 00:57:03;;;;;;;7.28;2.60;;;7.50;82.00;;;;;;5094883;28;20281;-81
2021/04/23 00:59:30;;;;;;;10.32;3.30;;;7.40;82.50;;;;;;5075557;28;20715;-81
2021/04/23 01:02:00;;;;;;;5.93;3.22;;;7.10;82.90;;;;;;5075902;28;20225;-81
2021/04/23 01:04:29;;;;;;;8.52;2.55;;;7.10;83.40;;;;;;5075781;28;20210;-81
2021/04/23 01:06:55;;;;;;;6.30;3.00;;;7.00;83.70;;;;;;5075675;28;20719;-81
2021/04/23 01:09:26;;;;;;;9.07;2.95;;;7.00;84.30;;;;;;5075913;28;20292;-81
2021/04/23 01:11:54;;;;;;;8.50;2.60;;;7.10;84.80;;;;;;5074482;28;20672;-81
2021/04/23 01:14:21;;;;;;;5.45;2.70;;;6.90;85.10;;;;;;5065967;28;20198;-81
2021/04/23 01:16:47;;;;;;;8.50;3.30;;;7.00;85.40;;;;;;5077896;28;20337;-81
2021/04/23 01:19:17;;;;;;;9.75;3.08;;;6.90;85.60;;;;;;5082099;28;20715;-81
2021/04/23 01:21:44;;;;;;;9.13;3.10;;;6.70;85.80;;;;;;5076991;28;20253;-81
2021/04/23 01:24:14;;;;;;;11.68;3.55;;;6.90;86.50;;;;;;5080268;28;20244;-81
2021/04/23 01:26:42;;;;;;;5.80;2.85;;;6.90;86.70;;;;;;5076674;28;20560;-81
2021/04/23 01:29:12;;;;;;;9.20;2.92;;;6.90;86.60;;;;;;5075831;28;20233;-81
2021/04/23 01:31:41;;;;;;;7.28;3.20;;;6.70;86.80;;;;;;5074687;28;20194;-81
2021/04/23 01:34:13;;;;;;;6.90;3.60;;;6.90;87.60;;;;;;5077894;28;20289;-81
2021/04/23 01:36:40;;;;;;;10.45;3.65;;;6.70;87.80;;;;;;5080561;28;20234;-80
2021/04/23 01:39:11;;;;;;;8.57;4.00;;;7.00;88.30;;;;;;5080296;28;20214;-80
2021/04/23 01:41:38;;;;;;;7.63;3.08;;;6.70;88.30;;;;;;5079460;28;20233;-82
2021/04/23 01:44:05;;;;;;;6.30;2.97;;;6.70;88.20;;;;;;5083602;28;20278;-80
2021/04/23 01:46:33;;;;;;;6.65;3.17;;;7.00;88.80;;;;;;5074947;28;20238;-80
2021/04/23 01:49:00;;;;;;;9.07;2.80;;;6.90;88.90;;;;;;5071964;28;20247;-80
2021/04/23 01:51:27;;;;;;;6.53;3.15;;;6.70;88.70;;;;;;5073266;28;20237;-80
2021/04/23 01:53:54;;;;;;;6.00;3.13;;;6.60;89.40;;;;;;5074089;28;20214;-80
2021/04/23 01:56:21;;;;;;;9.23;3.42;;;6.60;90.30;;;;;;5073845;28;20232;-82
2021/04/23 01:58:48;;;;;;;5.72;2.95;;;6.40;90.80;;;;;;5074507;28;20259;-80
2021/04/23 02:01:14;;;;;;;6.43;2.58;;;6.30;90.80;;;;;;5074531;28;20233;-83
2021/04/23 02:03:45;;;;;;;4.60;2.63;;;6.20;90.90;;;;;;5075495;28;20265;-82
2021/04/23 02:06:12;;;;;;;10.38;3.55;;;6.50;90.80;;;;;;5067908;28;20229;-82
2021/04/23 02:08:38;;;;;;;5.40;2.88;;;6.30;90.70;;;;;;5058054;28;20234;-80
2021/04/23 02:11:10;;;;;;;10.00;3.90;;;6.30;90.70;;;;;;5072367;28;20257;-80
2021/04/23 02:13:38;;;;;;;6.93;3.08;;;6.30;90.90;;;;;;5069416;28;20672;-80
2021/04/23 02:16:06;;;;;;;7.72;2.90;;;6.50;91.40;;;;;;5060990;28;20290;-83
2021/04/23 02:18:32;;;;;;;8.68;3.10;;;6.30;91.50;;;;;;5074164;28;20206;-83
2021/04/23 02:20:59;;;;;;;8.50;3.03;;;6.10;91.50;;;;;;5073704;28;20313;-83
2021/04/23 02:23:25;;;;;;;8.20;3.55;;;6.20;91.60;;;;;;5058604;28;20242;-82
2021/04/23 02:25:54;;;;;;;7.90;3.20;;;6.30;91.80;;;;;;5053019;28;20319;-82
2021/04/23 02:28:21;;;;;;;21.23;2.95;;;6.30;91.90;;;;;;5052670;28;20206;-83
2021/04/23 02:30:53;;;;;;;5.63;2.60;;;6.20;91.80;;;;;;5052921;28;20207;-82
2021/04/23 02:33:21;;;;;;;5.85;2.70;;;6.40;91.70;;;;;;5053576;28;20237;-80
2021/04/23 02:35:51;;;;;;;6.55;3.28;;;6.50;91.80;;;;;;5074353;28;20335;-83
2021/04/23 02:38:18;;;;;;;9.60;3.15;;;6.20;91.70;;;;;;5082249;28;20210;-80
2021/04/23 02:40:46;;;;;;;6.03;3.20;;;6.10;91.90;;;;;;5057729;28;20234;-82
2021/04/23 02:43:20;;;;;;;8.05;2.63;;;6.20;92.40;;;;;;5052956;28;20293;-82
2021/04/23 02:45:48;;;;;;;6.28;2.97;;;6.20;92.60;;;;;;5061738;28;20232;-83
2021/04/23 02:48:17;;;;;;;8.38;3.28;;;6.10;92.40;;;;;;5076029;28;20237;-80
2021/04/23 02:50:47;;;;;;;8.88;3.13;;;6.00;92.60;;;;;;5073113;28;20251;-80
2021/04/23 02:53:15;;;;;;;6.13;2.55;;;6.10;92.80;;;;;;5073619;28;20202;-80
2021/04/23 02:55:42;;;;;;;7.65;3.00;;;6.00;92.80;;;;;;5075315;28;20221;-80
2021/04/23 02:58:13;;;;;;;10.05;3.67;;;6.10;92.90;;;;;;5074308;28;20261;-79
2021/04/23 03:00:41;;;;;;;8.48;2.60;;;5.90;92.90;;;;;;5073188;28;20209;-80
2021/04/23 03:03:10;;;;;;;5.20;2.70;;;5.90;93.20;;;;;;5073790;28;20672;-80
2021/04/23 03:05:37;;;;;;;11.48;3.42;;;5.70;93.40;;;;;;5073000;28;20386;-80
2021/04/23 03:08:05;;;;;;;6.85;2.83;;;5.80;93.70;;;;;;5073935;28;20376;-80
2021/04/23 03:10:34;;;;;;;10.23;3.20;;;5.80;93.80;;;;;;5076597;28;20237;-80
2021/04/23 03:13:05;;;;;;;7.15;2.72;;;5.70;93.80;;;;;;5080496;28;20202;-80
2021/04/23 03:15:32;;;;;;;5.82;3.08;;;5.90;93.90;;;;;;5064620;28;20252;-80
2021/04/23 03:17:58;;;;;;;7.32;3.15;;;5.90;93.90;;;;;;5085125;28;20252;-80
2021/04/23 03:20:26;;;;;;;7.10;3.20;;;5.80;93.70;;;;;;5083906;28;20245;-80
2021/04/23 03:22:53;;;;;;;7.50;2.80;;;5.90;93.70;;;;;;5077698;28;20230;-80
2021/04/23 03:25:20;;;;;;;6.05;3.00;;;6.00;93.80;;;;;;5077522;28;20253;-81
2021/04/23 03:27:47;;;;;;;6.45;3.30;;;5.90;93.80;;;;;;5078245;28;20213;-80
2021/04/23 03:30:19;;;;;;;5.57;3.35;;;5.90;93.80;;;;;;5067102;28;20277;-81
2021/04/23 03:32:45;;;;;;;10.75;3.38;;;6.00;93.80;;;;;;5056442;28;20289;-80
2021/04/23 03:35:13;;;;;;;8.70;3.47;;;5.70;93.90;;;;;;5056559;28;20203;-80
2021/04/23 03:37:42;;;;;;;6.38;2.80;;;5.80;94.30;;;;;;5057335;28;20265;-80
2021/04/23 03:40:10;;;;;;;8.70;3.08;;;5.80;94.60;;;;;;5057581;28;20203;-81
2021/04/23 03:42:37;;;;;;;5.70;3.03;;;5.90;94.80;;;;;;5059619;28;20375;-81
2021/04/23 03:45:05;;;;;;;6.85;3.40;;;5.70;94.80;;;;;;5075760;28;20197;-80
2021/04/23 03:47:31;;;;;;;6.68;3.05;;;5.70;94.90;;;;;;5076043;28;20293;-81
2021/04/23 03:49:58;;;;;;;4.13;2.10;;;5.80;94.90;;;;;;5077408;28;20206;-81
2021/04/23 03:52:24;;;;;;;7.72;3.50;;;5.60;94.90;;;;;;5086924;28;20198;-81
2021/04/23 03:54:51;;;;;;;6.28;3.40;;;5.50;95.10;;;;;;5089689;28;20201;-80
2021/04/23 03:57:18;;;;;;;8.40;3.45;;;5.60;95.10;;;;;;5084390;28;20246;-80
2021/04/23 03:59:44;;;;;;;6.25;3.00;;;5.60;95.20;;;;;;5077469;28;20206;-80
2021/04/23 04:02:11;;;;;;;7.70;2.95;;;5.50;95.10;;;;;;5080644;28;20297;-80
2021/04/23 04:04:37;;;;;;;5.57;3.00;;;5.60;95.20;;;;;;5084901;28;20206;-80
2021/04/23 04:07:04;;;;;;;6.88;3.30;;;5.70;95.40;;;;;;5082823;28;20312;-81
2021/04/23 04:09:30;;;;;;;8.05;3.38;;;5.50;95.60;;;;;;5083859;28;20206;-80
2021/04/23 04:11:58;;;;;;;10.45;4.50;;;5.60;96.00;;;;;;5073220;28;20264;-80
2021/04/23 04:14:24;;;;;;;7.95;3.15;;;5.30;96.00;;;;;;5076884;28;20740;-81
2021/04/23 04:16:50;;;;;;;6.30;3.13;;;5.20;96.20;;;;;;5076682;28;20261;-81
2021/04/23 04:19:17;;;;;;;6.95;4.40;;;5.30;96.70;;;;;;5076024;28;20284;-81
2021/04/23 04:21:43;;;;;;;6.65;3.45;;;5.30;96.60;;;;;;5076042;28;20637;-81
2021/04/23 04:24:10;;;;;;;7.03;3.40;;;5.20;96.90;;;;;;5076585;28;20289;-81
2021/04/23 04:26:37;;;;;;;6.85;2.80;;;5.10;97.10;;;;;;5076374;28;20363;-81
2021/04/23 04:29:04;;;;;;;9.20;3.33;;;5.30;97.10;;;;;;5076028;28;20206;-80
2021/04/23 04:31:31;;;;;;;7.78;3.47;;;5.30;97.10;;;;;;5075663;28;20279;-80
2021/04/23 04:33:58;;;;;;;8.88;3.60;;;5.20;97.20;;;;;;5077072;28;20267;-80
2021/04/23 04:36:25;;;;;;;7.45;3.20;;;5.10;97.10;;;;;;5076396;28;20237;-80
2021/04/23 04:38:51;;;;;;;11.27;4.18;;;5.20;97.20;;;;;;5071992;28;20268;-80
2021/04/23 04:41:18;;;;;;;8.60;4.00;;;5.10;97.30;;;;;;5056547;28;20231;-80
2021/04/23 04:43:45;;;;;;;8.95;4.30;;;5.10;97.50;;;;;;5056802;28;20226;-80
2021/04/23 04:46:13;;;;;;;7.45;3.78;;;5.10;97.80;;;;;;5071355;28;20237;-82
2021/04/23 04:48:39;;;;;;;8.35;3.25;;;5.20;97.90;;;;;;5075500;28;20237;-80
2021/04/23 04:51:07;;;;;;;13.00;4.53;;;5.30;97.90;;;;;;5074987;28;20676;-80
2021/04/23 04:53:35;;;;;;;10.13;3.92;;;5.50;97.80;;;;;;5075302;28;20281;-81
2021/04/23 04:56:01;;;;;;;7.25;2.92;;;5.00;97.80;;;;;;5076102;28;20290;-81
2021/04/23 04:58:31;;;;;;;8.77;4.00;;;5.20;98.10;;;;;;5077799;28;20225;-80
2021/04/23 05:00:58;;;;;;;9.10;3.53;;;5.30;98.00;;;;;;5076767;28;20244;-80
2021/04/23 05:03:25;;;;;;;6.22;2.92;;;5.40;97.80;;;;;;5076521;28;20237;-80
2021/04/23 05:05:52;;;;;;;5.88;3.40;;;5.30;97.70;;;;;;5076565;28;20316;-80
2021/04/23 05:08:19;;;;;;;9.48;3.85;;;5.20;97.70;;;;;;5058182;28;20285;-80
2021/04/23 05:10:45;;;;;;;15.10;5.60;;;5.10;98.00;;;;;;5055405;28;20238;-81
2021/04/23 05:13:12;;;;;;;8.95;3.78;;;5.20;98.50;;;;;;5057821;28;20404;-81
2021/04/23 05:15:39;;;;;;;11.00;3.92;;;5.20;98.60;;;;;;5075373;28;20229;-80
2021/04/23 05:18:06;;;;;;;11.35;4.72;;;5.40;98.70;;;;;;5076916;28;20269;-80
2021/04/23 05:20:34;;;;;;;8.38;3.30;;;5.40;98.70;;;;;;5076421;28;20635;-81
2021/04/23 05:23:01;;;;;;;12.68;3.70;;;5.40;98.60;;;;;;5075136;28;20332;-80
2021/04/23 05:25:29;;;;;;;9.30;3.63;;;5.50;98.50;;;;;;5074775;28;20305;-81
2021/04/23 05:27:56;;;;;;;9.95;3.60;;;5.50;98.40;;;;;;5074673;28;20229;-80
2021/04/23 05:30:25;;;;;;;6.38;3.55;;;5.50;98.60;;;;;;5075435;28;20241;-81
2021/04/23 05:32:53;;;;;;;10.35;3.60;;;5.60;98.70;;;;;;5074800;28;20285;-81
2021/04/23 05:35:22;;;;;;;8.95;4.05;;;5.60;98.70;;;;;;5064128;28;20723;-81
2021/04/23 05:37:50;;;;;;;10.15;3.80;;;5.80;98.80;;;;;;5055172;28;20248;-81
2021/04/23 05:40:20;;;;;;;8.98;4.28;;;5.80;98.60;;;;;;5054880;28;20296;-80
2021/04/23 05:42:47;;;;;;;11.30;4.28;;;5.90;98.30;;;;;;5053822;28;20227;-80
2021/04/23 05:45:14;;;;;;;12.57;4.40;;;5.80;98.00;;;;;;5055460;28;20293;-80
2021/04/23 05:47:41;;;;;;;8.13;4.45;;;6.10;97.90;;;;;;5073133;28;20320;-80
2021/04/23 05:50:10;;;;;;;9.70;3.65;;;6.00;97.60;;;;;;5056458;28;20206;-82
2021/04/23 05:52:36;;;;;;;10.10;3.88;;;6.10;97.40;;;;;;5054644;28;20210;-81
2021/04/23 05:55:04;;;;;;;9.30;4.00;;;6.30;97.10;;;;;;5054894;28;20217;-81
2021/04/23 05:57:31;;;;;;;7.28;4.05;;;6.20;96.90;;;;;;5055543;28;20206;-81
2021/04/23 05:59:57;;;;;;;13.85;4.53;;;6.50;96.90;;;;;;5055461;28;20246;-80
2021/04/23 06:02:23;;;;;;;5.95;3.25;;;6.40;96.70;;;;;;5059796;28;20234;-80
2021/04/23 06:04:50;;;;;;;6.68;3.95;;;6.70;96.30;;;;;;5076004;28;20247;-81
2021/04/23 06:07:16;;;;;;;11.27;5.03;;;6.50;96.20;;;;;;5075885;28;20233;-82
2021/04/23 06:09:43;;;;;;;11.07;4.25;;;6.70;96.20;;;;;;5076493;28;20256;-81
2021/04/23 06:12:10;;;;;;;11.02;3.97;;;6.80;96.10;;;;;;5078639;28;20261;-82
2021/04/23 06:14:37;;;;;;;18.40;5.15;;;7.10;96.10;;;;;;5061440;28;20256;-81
2021/04/23 06:17:05;;;;;;;10.27;4.50;;;6.90;95.90;;;;;;5061798;28;20257;-81
2021/04/23 06:19:32;;;;;;;13.07;5.57;;;7.10;95.90;;;;;;5058356;28;20282;-81
2021/04/23 06:21:59;;;;;;;19.53;5.43;;;7.10;96.20;;;;;;5060796;28;20222;-81
2021/04/23 06:24:26;;;;;;;11.30;5.22;;;7.30;95.60;;;;;;5064535;28;20483;-80
2021/04/23 06:26:53;;;;;;;12.20;4.80;;;7.70;95.60;;;;;;5078002;28;20245;-81
2021/04/23 06:29:21;;;;;;;10.40;5.07;;;7.70;94.90;;;;;;5079055;28;20214;-80
2021/04/23 06:31:47;;;;;;;15.80;6.10;;;7.50;94.20;;;;;;5062717;28;20207;-81
2021/04/23 06:34:16;;;;;;;12.97;5.90;;;7.90;94.30;;;;;;5057611;28;20206;-80
2021/04/23 06:36:43;;;;;;;13.20;6.25;;;7.70;94.20;;;;;;5062215;28;20503;-80
2021/04/23 06:39:17;;;;;;;17.30;7.57;;;7.90;94.60;;;;;;5059028;28;20230;-81
2021/04/23 06:41:44;;;;;;;16.67;6.70;;;8.00;94.80;;;;;;5054402;28;20576;-80
2021/04/23 06:44:10;;;;;;;12.15;7.22;;;8.20;94.80;;;;;;5057463;28;20459;-81
2021/04/23 06:46:37;;;;;;;12.97;6.13;;;8.00;94.60;;;;;;5058337;28;20238;-80
2021/04/23 06:49:04;;;;;;;11.77;5.17;;;8.20;95.00;;;;;;5058356;28;20524;-80
2021/04/23 06:51:31;;;;;;;15.07;6.27;;;8.30;94.00;;;;;;5060556;28;20449;-81
2021/04/23 06:53:58;;;;;;;19.87;6.70;;;8.40;93.60;;;;;;5066412;28;20449;-81
2021/04/23 06:56:24;;;;;;;16.53;7.10;;;8.50;93.90;;;;;;5086201;28;20491;-81
2021/04/23 06:58:50;;;;;;;14.10;7.87;;;8.60;93.90;;;;;;5094675;28;20452;-80
2021/04/23 07:01:17;;;;;;;13.67;6.63;;;8.50;93.50;;;;;;5085308;28;20452;-81
2021/04/23 07:03:45;;;;;;;10.30;6.30;;;8.50;93.30;;;;;;5084651;28;20519;-81
2021/04/23 07:06:11;;;;;;;16.73;6.93;;;8.50;93.10;;;;;;5078887;28;20474;-81
2021/04/23 07:08:39;;;;;;;14.33;6.53;;;8.70;93.00;;;;;;5081212;28;20900;-81
2021/04/23 07:11:06;;;;;;;10.57;6.07;;;8.80;92.40;;;;;;5084009;28;20426;-81
2021/04/23 07:13:33;;;;;;;15.33;7.00;;;8.90;92.00;;;;;;5074609;28;20441;-81
2021/04/23 07:15:59;;;;;;;11.77;6.33;;;8.90;92.00;;;;;;5058306;28;20500;-81
2021/04/23 07:18:27;;;;;;;13.50;6.73;;;9.10;92.10;;;;;;5057516;28;20528;-81
2021/04/23 07:20:54;;;;;;;11.60;5.77;;;9.30;91.80;;;;;;5057925;28;20880;-80
2021/04/23 07:23:21;;;;;;;11.40;5.93;;;9.20;90.60;;;;;;5057620;28;20510;-81
2021/04/23 07:25:47;;;;;;;8.97;5.17;;;9.40;90.50;;;;;;5072290;28;20464;-81
2021/04/23 07:28:14;;;;;;;14.83;5.90;;;9.40;90.40;;;;;;5058396;28;20524;-81
2021/04/23 07:30:41;;;;;;;20.73;7.83;;;9.60;90.20;;;;;;5058267;28;20449;-81
2021/04/23 07:33:11;;;;;;;14.10;6.50;;;9.70;90.10;;;;;;5058807;28;20550;-80
2021/04/23 07:35:38;;;;;;;11.90;5.60;;;9.70;88.90;;;;;;5064842;28;20910;-80
2021/04/23 07:38:08;;;;;;;10.37;5.93;;;9.90;87.90;;;;;;5062893;28;20449;-80
2021/04/23 07:40:35;;;;;;;18.10;6.57;;;9.80;88.50;;;;;;5071531;28;20546;-80
2021/04/23 07:43:02;;;;;;;16.43;6.57;;;9.80;89.30;;;;;;5085070;28;20484;-80
2021/04/23 07:45:29;;;;;;;13.90;6.50;;;9.90;88.60;;;;;;5080694;28;20507;-80
2021/04/23 07:47:56;;;;;;;16.00;7.10;;;9.90;87.90;;;;;;5076448;28;20799;-79
2021/04/23 07:50:25;;;;;;;13.77;7.07;;;10.00;86.40;;;;;;5076215;28;20462;-80
2021/04/23 07:52:52;;;;;;;16.30;7.70;;;10.00;86.50;;;;;;5076869;28;20505;-80
2021/04/23 07:55:21;;;;;;;12.70;6.80;;;10.10;86.90;;;;;;5071678;28;20471;-80
2021/04/23 07:57:49;;;;;;;13.83;6.70;;;10.20;86.30;;;;;;5076325;28;20451;-81
2021/04/23 08:00:20;;;;;;;17.80;7.23;;;10.40;86.00;;;;;;5082232;28;20486;-80
2021/04/23 08:02:47;;;;;;;15.93;6.10;;;10.50;84.40;;;;;;5082340;28;21124;-80
2021/04/23 08:05:15;;;;;;;10.30;5.70;;;10.70;83.70;;;;;;5081396;28;20451;-81
2021/04/23 08:07:43;;;;;;;11.60;5.07;;;10.80;82.90;;;;;;5082990;28;20530;-80
2021/04/23 08:10:10;;;;;;;10.93;5.00;;;10.90;80.30;;;;;;5072970;28;20939;-80
2021/04/23 08:12:39;;;;;;;10.20;6.17;;;10.90;80.60;;;;;;5058526;28;20454;-81
2021/04/23 08:15:06;;;;;;;12.27;6.03;;;10.90;81.30;;;;;;5076688;28;20447;-81
2021/04/23 08:17:34;;;;;;;17.13;6.73;;;11.10;80.70;;;;;;5077226;28;20872;-81
2021/04/23 08:20:01;;;;;;;11.67;5.90;;;11.20;80.50;;;;;;5077265;28;20792;-82
2021/04/23 08:22:27;;;;;;;12.57;6.30;;;11.30;79.50;;;;;;5077010;28;20557;-81
2021/04/23 08:24:53;;;;;;;15.07;5.17;;;11.40;78.70;;;;;;5077464;28;20478;-81
2021/04/23 08:27:20;;;;;;;10.63;6.03;;;11.50;77.80;;;;;;5063109;28;20496;-81
2021/04/23 08:29:47;;;;;;;20.13;5.67;;;11.50;78.00;;;;;;5057240;28;20457;-81
2021/04/23 08:32:15;;;;;;;10.70;5.10;;;11.50;76.10;;;;;;5057298;28;20448;-80
2021/04/23 08:34:41;;;;;;;14.20;6.37;;;11.40;75.30;;;;;;5057848;28;20449;-80
2021/04/23 08:37:08;;;;;;;15.23;5.67;;;11.60;76.10;;;;;;5057194;28;20492;-81
2021/04/23 08:39:39;;;;;;;12.90;6.33;;;11.60;75.70;;;;;;5056871;28;20419;-81
2021/04/23 08:42:06;;;;;;;16.17;6.30;;;11.80;75.30;;;;;;5057474;28;20520;-81
2021/04/23 08:44:33;;;;;;;9.87;5.17;;;11.90;74.80;;;;;;5056935;28;20461;-81
2021/04/23 08:47:00;;;;;;;16.87;6.20;;;12.00;74.30;;;;;;5057294;28;20655;-81
2021/04/23 08:49:27;;;;;;;13.53;5.67;;;12.00;73.60;;;;;;5057259;28;20446;-81
2021/04/23 08:51:54;;;;;;;9.77;6.00;;;12.00;73.00;;;;;;5058079;28;20431;-81
2021/04/23 08:54:21;;;;;;;12.27;6.90;;;11.90;72.80;;;;;;5063561;28;20490;-81
2021/04/23 08:56:48;;;;;;;11.60;5.83;;;12.10;73.40;;;;;;5078383;28;20434;-81
2021/04/23 08:59:15;;;;;;;12.23;6.30;;;12.20;73.70;;;;;;5082029;28;20446;-81
2021/04/23 09:01:41;;;;;;;11.97;5.33;;;12.30;72.30;;;;;;5079709;28;20458;-81
2021/04/23 09:04:08;;;;;;;13.63;6.30;;;12.50;71.70;;;;;;5083767;28;20414;-81
2021/04/23 09:06:35;;;;;;;12.07;5.73;;;12.20;71.50;;;;;;5080983;28;20518;-81
2021/04/23 09:09:05;;;;;;;8.80;5.43;;;12.00;72.20;;;;;;5076771;28;20490;-81
2021/04/23 09:11:35;;;;;;;10.63;5.27;;;12.10;72.20;;;;;;5075919;28;20550;-81
2021/04/23 09:14:03;;;;;;;10.53;6.10;;;12.10;71.60;;;;;;5067312;28;20424;-81
2021/04/23 09:16:52;;;;;;;18.43;7.70;;;12.40;71.90;;;;;;5076350;28;20468;-81
2021/04/23 09:19:22;;;;;;;14.93;7.33;;;12.60;70.80;;;;;;5077502;28;20458;-81
2021/04/23 09:21:51;;;;;;;18.63;7.67;;;12.80;70.00;;;;;;5078576;28;20518;-81
2021/04/23 09:24:27;;;;;;;10.37;5.17;;;12.70;69.20;;;;;;5076792;28;20562;-81
2021/04/23 09:26:54;;;;;;;12.83;6.10;;;12.90;68.10;;;;;;5076125;28;20506;-80
2021/04/23 09:29:32;;;;;;;16.07;6.00;;;12.80;67.20;;;;;;5076614;28;20567;-81
2021/04/23 09:32:10;;;;;;;13.50;6.50;;;12.60;68.20;;;;;;5075195;28;20500;-81
2021/04/23 09:34:51;;;;;;;13.67;7.13;;;12.70;68.70;;;;;;5076630;28;20549;-81
2021/04/23 09:37:18;;;;;;;12.50;6.30;;;12.70;68.30;;;;;;5076230;28;20454;-81
2021/04/23 09:39:46;;;;;;;10.33;5.30;;;12.80;68.20;;;;;;5078383;28;20439;-81
2021/04/23 09:42:13;;;;;;;11.23;5.20;;;12.90;67.40;;;;;;5076482;28;20459;-81
2021/04/23 09:44:41;;;;;;;13.77;5.97;;;12.90;67.40;;;;;;5076925;28;20427;-81
2021/04/23 09:47:13;;;;;;;14.37;7.80;;;13.00;67.20;;;;;;5069241;28;20451;-81
2021/04/23 09:49:42;;;;;;;15.37;7.20;;;13.00;66.70;;;;;;5057129;28;20533;-81
2021/04/23 09:52:13;;;;;;;10.20;6.23;;;13.10;67.60;;;;;;5061186;28;20423;-83
2021/04/23 09:54:39;;;;;;;11.00;5.97;;;13.10;67.40;;;;;;5066860;28;20457;-81
2021/04/23 09:57:14;;;;;;;10.80;6.80;;;13.10;66.60;;;;;;5089688;28;20483;-81
2021/04/23 10:00:04;;;;;;;12.83;7.13;;;12.90;67.30;;;;;;5085297;28;20447;-81
2021/04/23 10:02:31;;;;;;;12.87;6.90;;;13.10;67.50;;;;;;5096269;28;20482;-81
2021/04/23 10:04:59;;;;;;;20.57;6.20;;;13.30;67.30;;;;;;5080379;28;20494;-81
2021/04/23 10:07:27;;;;;;;10.10;5.60;;;13.40;65.40;;;;;;5081392;28;20444;-81
2021/04/23 10:10:02;;;;;;;13.43;5.80;;;13.40;64.90;;;;;;5081116;28;20502;-81
2021/04/23 10:12:40;;;;;;;13.83;5.83;;;13.50;65.40;;;;;;5081255;28;20444;-81
2021/04/23 10:15:10;;;;;;;13.80;6.43;;;13.30;64.40;;;;;;5056733;28;20568;-79
2021/04/23 10:17:37;;;;;;;15.70;7.10;;;13.40;64.30;;;;;;5055750;28;20898;-82
2021/04/23 10:20:06;;;;;;;12.17;6.43;;;13.50;63.40;;;;;;5057007;28;20432;-82
2021/04/23 10:22:33;;;;;;;13.67;6.30;;;13.60;62.10;;;;;;5055942;28;20967;-82
2021/04/23 10:24:59;;;;;;;13.63;5.87;;;13.60;60.20;;;;;;5056775;28;20880;-81
2021/04/23 10:27:26;;;;;;;16.50;6.10;;;13.50;59.60;;;;;;5059827;28;20435;-81
2021/04/23 10:29:53;;;;;;;10.70;6.17;;;13.70;61.20;;;;;;5078645;28;20583;-81
2021/04/23 10:32:22;;;;;;;11.00;5.50;;;13.70;62.70;;;;;;5078285;28;20452;-81
2021/04/23 10:34:49;;;;;;;11.90;6.73;;;13.90;63.20;;;;;;5076562;28;20514;-81
2021/04/23 10:37:16;;;;;;;12.30;5.67;;;14.00;62.80;;;;;;5076786;28;20468;-81
2021/04/23 10:39:47;;;;;;;10.80;5.90;;;13.90;61.70;;;;;;5074990;28;20451;-81
2021/04/23 10:42:46;;;;;;;10.77;4.90;;;13.80;62.00;;;;;;5076073;28;20518;-81
2021/04/23 10:45:33;;;;;;;10.40;5.30;;;13.60;61.80;;;;;;5075345;28;20450;-81
2021/04/23 10:48:02;;;;;;;13.97;6.80;;;13.80;61.50;;;;;;5106982;22;20921;-84
2021/04/23 10:50:40;;;;;;;13.17;6.47;;;14.00;60.80;;;;;;5102241;28;20450;-85
2021/04/23 10:53:11;;;;;;;12.23;5.73;;;14.10;59.80;;;;;;5102248;28;20426;-83
2021/04/23 10:55:49;;;;;;;12.30;4.53;;;14.00;58.40;;;;;;5102513;28;20467;-85
2021/04/23 10:58:18;;;;;;;9.37;5.17;;;14.10;57.70;;;;;;5083294;28;20469;-86
2021/04/23 11:00:46;;;;;;;9.93;4.63;;;14.00;56.20;;;;;;5081593;28;20453;-85
2021/04/23 11:03:27;;;;;;;10.80;5.70;;;14.00;56.30;;;;;;5079972;28;20454;-85
2021/04/23 11:05:56;;;;;;;16.50;6.20;;;14.00;56.90;;;;;;5080326;28;20655;-86
2021/04/23 11:08:24;;;;;;;12.53;5.03;;;14.00;57.40;;;;;;5078678;28;21004;-85
2021/04/23 11:11:17;;;;;;;8.47;4.90;;;14.10;57.00;;;;;;5081382;28;20456;-84
2021/04/23 11:13:53;;;;;;;7.77;3.93;;;14.10;55.40;;;;;;5080725;28;20803;-84
2021/04/23 11:16:27;;;;;;;11.10;4.70;;;14.10;56.70;;;;;;5078778;28;20414;-85
2021/04/23 11:19:00;;;;;;;7.00;3.20;;;14.00;56.80;;;;;;5072738;28;20452;-84
2021/04/23 11:21:40;;;;;;;15.13;5.80;;;14.10;57.70;;;;;;5081557;28;20431;-83
2021/04/23 11:24:14;;;;;;;11.20;5.10;;;13.90;57.10;;;;;;5082962;28;20418;-84
2021/04/23 11:27:10;;;;;;;12.37;5.93;;;13.90;57.20;;;;;;5078845;28;20450;-84
2021/04/23 11:30:04;;;;;;;10.97;5.27;;;14.10;56.50;;;;;;5080672;28;20600;-84
2021/04/23 11:32:33;;;;;;;10.83;4.70;;;14.30;54.70;;;;;;5080935;28;20423;-85
2021/04/23 11:35:01;;;;;;;8.90;4.90;;;14.30;53.90;;;;;;5083330;28;20520;-84
2021/04/23 11:41:11;;;;;;;12.57;5.07;;;14.40;52.00;;;;;;5062996;28;20452;-85
2021/04/23 11:43:38;;;;;;;8.47;4.83;;;14.40;51.30;;;;;;5063943;28;20993;-85
2021/04/23 11:46:04;;;;;;;11.43;5.23;;;14.40;51.20;;;;;;5062047;28;20477;-85
2021/04/23 11:48:47;;;;;;;10.00;5.43;;;14.60;54.50;;;;;;5079277;28;20541;-84
2021/04/23 11:51:17;;;;;;;7.97;5.27;;;14.50;54.90;;;;;;5082679;28;20603;-85
2021/04/23 11:53:48;;;;;;;9.03;3.90;;;14.40;53.90;;;;;;5078832;28;20533;-86
2021/04/23 11:56:15;;;;;;;7.50;4.63;;;14.40;54.00;;;;;;5079251;28;20512;-87
2021/04/23 11:58:45;;;;;;;9.97;4.80;;;14.50;54.30;;;;;;5074129;28;20484;-84
2021/04/23 12:01:13;;;;;;;10.70;4.50;;;14.90;52.90;;;;;;5060579;28;20424;-85
2021/04/23 12:03:46;;;;;;;12.50;5.50;;;15.00;52.20;;;;;;5060689;28;20894;-83
2021/04/23 12:06:13;;;;;;;8.10;4.67;;;15.00;51.00;;;;;;5060947;28;20515;-86
2021/04/23 12:08:39;;;;;;;8.40;5.40;;;14.90;50.70;;;;;;5061645;28;20452;-86
2021/04/23 12:11:08;;;;;;;12.30;5.20;;;15.00;52.00;;;;;;5061662;28;20431;-83
2021/04/23 12:13:37;;;;;;;9.00;5.10;;;15.10;51.90;;;;;;5062055;28;21031;-84
2021/04/23 12:16:06;;;;;;;7.50;4.33;;;15.30;51.60;;;;;;5061100;28;20474;-85
2021/04/23 12:18:32;;;;;;;8.20;5.00;;;15.20;49.20;;;;;;5086479;28;20533;-85
2021/04/23 12:21:03;;;;;;;10.37;4.47;;;15.20;49.60;;;;;;5078687;28;20455;-85
2021/04/23 12:23:32;;;;;;;9.77;4.50;;;15.20;49.10;;;;;;5079108;28;20486;-85
2021/04/23 12:25:59;;;;;;;8.90;4.77;;;15.40;44.20;;;;;;5079976;28;20429;-85
2021/04/23 12:28:29;;;;;;;9.13;5.30;;;15.50;45.70;;;;;;5079874;28;20457;-86
2021/04/23 12:30:59;;;;;;;14.90;5.90;;;15.40;48.20;;;;;;5076699;28;20434;-86
2021/04/23 12:33:39;;;;;;;9.67;4.60;;;15.40;48.20;;;;;;5059954;28;20503;-86
2021/04/23 12:36:22;;;;;;;7.93;3.63;;;15.40;47.50;;;;;;5059339;28;20423;-84
2021/04/23 12:38:52;;;;;;;9.70;3.93;;;15.50;44.70;;;;;;5062002;28;20446;-84
2021/04/23 12:41:30;;;;;;;10.13;2.43;;;15.40;42.80;;;;;;5060739;28;20464;-84
2021/04/23 12:44:03;;;;;;;10.13;4.67;;;15.30;43.80;;;;;;5060954;28;20437;-84
2021/04/23 12:46:35;;;;;;;10.60;3.47;;;15.30;44.30;;;;;;5060661;28;21005;-86
2021/04/23 12:49:06;;;;;;;6.97;4.30;;;15.40;42.10;;;;;;5060947;28;20861;-86
2021/04/23 12:51:36;;;;;;;8.80;4.57;;;15.60;42.70;;;;;;5059797;28;20449;-84
2021/04/23 12:54:04;;;;;;;11.03;5.07;;;15.70;43.00;;;;;;5061279;28;20928;-84
2021/04/23 12:56:31;;;;;;;8.70;4.50;;;15.60;42.10;;;;;;5060201;28;20447;-84
2021/04/23 12:58:58;;;;;;;7.23;4.00;;;15.70;44.10;;;;;;5058724;28;20551;-84